Time;durP1;ratioP1;P1;durP2;ratioP2;P2;SDS_P1;SDS_P2;PMS_P1;PMS_P2;Temp;Humidity;BMP_temperature;BMP_pressure;BME280_temperature;BME280_humidity;BME280_pressure;Samples;Min_cycle;Max_cycle;Signal;HPM_P1;HPM_P2
2022/04/23 00:00:39;;;;;;;2.40;1.60;;;12.60;98.00;;;;;;5134929;27;20470;-71
2022/04/23 00:03:06;;;;;;;4.70;2.23;;;12.60;98.00;;;;;;5134996;27;20848;-71
2022/04/23 00:05:33;;;;;;;2.67;2.30;;;12.50;98.00;;;;;;5135092;27;20485;-71
2022/04/23 00:08:00;;;;;;;6.50;2.97;;;12.40;98.00;;;;;;5135032;27;20478;-71
2022/04/23 00:10:27;;;;;;;2.77;2.07;;;12.30;98.00;;;;;;5133732;27;20459;-71
2022/04/23 00:12:55;;;;;;;4.07;2.50;;;12.10;98.00;;;;;;5134609;27;20511;-71
2022/04/23 00:15:25;;;;;;;3.40;2.10;;;12.10;98.00;;;;;;5134007;27;20489;-71
2022/04/23 00:17:53;;;;;;;4.60;2.67;;;12.10;98.00;;;;;;5134696;27;21065;-71
2022/04/23 00:20:23;;;;;;;3.70;2.33;;;11.90;98.00;;;;;;5134776;27;20447;-71
2022/04/23 00:22:50;;;;;;;2.70;1.80;;;11.80;98.00;;;;;;5134656;27;20450;-71
2022/04/23 00:25:17;;;;;;;4.47;2.67;;;11.60;98.00;;;;;;5134840;27;20470;-71
2022/04/23 00:27:43;;;;;;;3.50;1.93;;;11.40;98.00;;;;;;5134712;27;20510;-71
2022/04/23 00:30:13;;;;;;;2.20;2.10;;;11.30;98.00;;;;;;5134442;27;20541;-71
2022/04/23 00:32:39;;;;;;;1.97;1.57;;;11.10;98.00;;;;;;5134942;27;20519;-71
2022/04/23 00:35:07;;;;;;;2.07;1.90;;;11.10;98.00;;;;;;5135292;27;20512;-71
2022/04/23 00:37:34;;;;;;;3.40;2.20;;;10.90;98.00;;;;;;5134841;27;20823;-71
2022/04/23 00:40:06;;;;;;;2.93;2.23;;;10.80;98.00;;;;;;5134292;27;20463;-71
2022/04/23 00:42:33;;;;;;;3.43;2.50;;;10.80;98.00;;;;;;5134451;27;20481;-71
2022/04/23 00:45:00;;;;;;;3.23;1.93;;;10.70;98.00;;;;;;5134267;27;20453;-71
2022/04/23 00:47:29;;;;;;;2.77;1.97;;;10.60;98.00;;;;;;5133137;27;20466;-70
2022/04/23 00:49:57;;;;;;;1.80;1.60;;;10.40;98.00;;;;;;5134140;27;20499;-71
2022/04/23 00:52:25;;;;;;;1.50;1.33;;;10.40;98.00;;;;;;5134306;27;20541;-71
2022/04/23 00:54:52;;;;;;;4.53;2.03;;;10.40;98.00;;;;;;5132937;27;20493;-71
2022/04/23 00:57:19;;;;;;;2.80;2.10;;;10.30;98.00;;;;;;5134306;27;20450;-71
2022/04/23 00:59:47;;;;;;;2.53;2.23;;;10.20;98.00;;;;;;5134923;27;20455;-71
2022/04/23 01:02:15;;;;;;;1.67;1.60;;;10.30;98.00;;;;;;5134303;27;20456;-71
2022/04/23 01:04:43;;;;;;;1.97;1.57;;;10.10;98.00;;;;;;5132738;27;20747;-71
2022/04/23 01:07:11;;;;;;;1.30;1.20;;;9.90;98.00;;;;;;5133711;27;21182;-71
2022/04/23 01:09:38;;;;;;;1.70;1.57;;;9.90;98.00;;;;;;5133661;27;20540;-71
2022/04/23 01:12:06;;;;;;;2.27;1.83;;;10.00;98.00;;;;;;5133737;27;20551;-71
2022/04/23 01:14:33;;;;;;;1.57;1.50;;;10.20;98.00;;;;;;5133422;27;20472;-71
2022/04/23 01:17:06;;;;;;;2.77;1.47;;;10.30;98.00;;;;;;5133656;27;20536;-71
2022/04/23 01:19:32;;;;;;;1.40;1.40;;;10.30;98.00;;;;;;5133325;27;20460;-71
2022/04/23 01:22:02;;;;;;;3.10;1.67;;;10.40;98.00;;;;;;5133508;27;20550;-71
2022/04/23 01:24:30;;;;;;;1.70;1.60;;;10.40;98.00;;;;;;5133372;27;20985;-71
2022/04/23 01:26:59;;;;;;;2.30;2.13;;;10.50;98.00;;;;;;5132192;27;20460;-71
2022/04/23 01:29:25;;;;;;;2.80;1.63;;;10.60;98.00;;;;;;5133442;27;20796;-71
2022/04/23 01:31:52;;;;;;;2.30;1.70;;;10.60;98.00;;;;;;5133128;27;20487;-71
2022/04/23 01:34:19;;;;;;;2.80;1.57;;;10.60;98.00;;;;;;5133109;27;20545;-71
2022/04/23 01:36:46;;;;;;;2.77;1.63;;;10.50;98.00;;;;;;5133189;27;20911;-71
2022/04/23 01:39:14;;;;;;;2.77;2.10;;;10.50;98.00;;;;;;5133065;27;20544;-71
2022/04/23 01:41:41;;;;;;;1.90;1.70;;;10.40;98.00;;;;;;5132978;27;20479;-71
2022/04/23 01:44:08;;;;;;;3.83;1.90;;;10.10;98.00;;;;;;5132978;27;20488;-71
2022/04/23 01:46:36;;;;;;;1.70;1.60;;;10.00;98.00;;;;;;5132905;27;20709;-71
2022/04/23 01:49:03;;;;;;;5.10;2.43;;;9.80;98.00;;;;;;5132970;27;20476;-71
2022/04/23 01:51:30;;;;;;;1.50;1.50;;;9.70;98.00;;;;;;5133094;27;20861;-71
2022/04/23 01:53:57;;;;;;;2.33;1.90;;;9.80;98.00;;;;;;5132721;27;20527;-71
2022/04/23 01:56:25;;;;;;;2.17;2.00;;;9.70;98.00;;;;;;5132828;27;20684;-71
2022/04/23 01:58:52;;;;;;;2.07;1.80;;;9.60;98.00;;;;;;5132682;27;20481;-71
2022/04/23 02:01:19;;;;;;;2.63;1.70;;;9.60;98.00;;;;;;5132645;27;20482;-71
2022/04/23 02:03:47;;;;;;;2.80;2.20;;;9.70;98.00;;;;;;5132607;27;20750;-71
2022/04/23 02:06:14;;;;;;;2.00;1.70;;;9.80;98.00;;;;;;5132413;27;20446;-71
2022/04/23 02:08:41;;;;;;;1.70;1.53;;;9.90;98.00;;;;;;5132493;27;20447;-71
2022/04/23 02:11:07;;;;;;;1.57;1.27;;;10.00;98.00;;;;;;5132443;27;20495;-71
2022/04/23 02:13:36;;;;;;;1.90;1.50;;;10.20;98.00;;;;;;5132401;27;20533;-71
2022/04/23 02:16:04;;;;;;;2.20;1.73;;;10.20;98.00;;;;;;5132469;27;20450;-71
2022/04/23 02:18:32;;;;;;;1.77;1.67;;;10.30;98.00;;;;;;5132260;27;20952;-71
2022/04/23 02:21:00;;;;;;;2.13;1.63;;;10.50;98.00;;;;;;5132319;27;20460;-71
2022/04/23 02:23:27;;;;;;;2.00;1.80;;;10.70;98.00;;;;;;5132332;27;20449;-71
2022/04/23 02:25:53;;;;;;;1.97;1.37;;;10.80;98.00;;;;;;5131960;27;20486;-71
2022/04/23 02:28:20;;;;;;;2.13;1.40;;;10.70;98.00;;;;;;5131029;27;20894;-71
2022/04/23 02:30:49;;;;;;;2.30;1.50;;;10.40;98.00;;;;;;5132149;27;20457;-71
2022/04/23 02:33:17;;;;;;;1.80;1.47;;;10.00;98.00;;;;;;5132125;27;20490;-71
2022/04/23 02:35:44;;;;;;;2.17;1.50;;;9.90;98.00;;;;;;5132179;27;20659;-71
2022/04/23 02:38:11;;;;;;;2.17;1.40;;;9.60;98.00;;;;;;5130874;27;20819;-71
2022/04/23 02:40:39;;;;;;;1.77;1.67;;;9.50;98.00;;;;;;5130827;27;20485;-71
2022/04/23 02:43:07;;;;;;;2.50;1.80;;;9.40;98.00;;;;;;5132348;27;20811;-71
2022/04/23 02:45:35;;;;;;;1.50;1.27;;;9.40;98.00;;;;;;5130889;27;20505;-71
2022/04/23 02:48:04;;;;;;;1.50;1.50;;;9.50;98.00;;;;;;5131913;27;20472;-71
2022/04/23 02:50:33;;;;;;;4.30;1.70;;;9.60;98.00;;;;;;5130984;27;20857;-71
2022/04/23 02:53:01;;;;;;;1.70;1.40;;;9.80;98.00;;;;;;5131850;28;20701;-71
2022/04/23 02:55:30;;;;;;;1.40;1.30;;;9.70;98.00;;;;;;5131910;28;20489;-71
2022/04/23 02:58:00;;;;;;;1.67;1.60;;;9.50;98.00;;;;;;5132027;28;20510;-71
2022/04/23 03:00:27;;;;;;;1.63;1.30;;;9.50;98.00;;;;;;5131773;28;20450;-71
2022/04/23 03:02:54;;;;;;;1.63;1.53;;;9.40;98.00;;;;;;5131829;28;20454;-71
2022/04/23 03:05:24;;;;;;;1.67;1.63;;;9.40;98.00;;;;;;5131726;28;20450;-71
2022/04/23 03:07:51;;;;;;;1.70;1.50;;;9.30;98.00;;;;;;5131805;27;20511;-71
2022/04/23 03:10:19;;;;;;;1.40;1.30;;;9.40;98.00;;;;;;5131721;28;20542;-71
2022/04/23 03:12:46;;;;;;;1.53;1.10;;;9.30;98.00;;;;;;5131788;27;20619;-70
2022/04/23 03:15:18;;;;;;;2.13;1.60;;;9.30;98.00;;;;;;5131483;28;20517;-71
2022/04/23 03:17:46;;;;;;;1.47;1.43;;;9.30;98.00;;;;;;5131717;28;20514;-71
2022/04/23 03:20:15;;;;;;;3.10;1.90;;;9.40;98.00;;;;;;5131412;28;20455;-71
2022/04/23 03:22:44;;;;;;;1.53;1.33;;;9.40;98.00;;;;;;5131627;28;20517;-71
2022/04/23 03:25:12;;;;;;;1.80;1.43;;;9.40;98.00;;;;;;5131622;28;20493;-71
2022/04/23 03:27:39;;;;;;;1.20;1.17;;;9.30;98.00;;;;;;5130436;28;20485;-71
2022/04/23 03:30:08;;;;;;;2.00;1.57;;;9.10;98.00;;;;;;5131643;28;20538;-71
2022/04/23 03:32:34;;;;;;;1.30;1.20;;;9.10;98.00;;;;;;5131774;28;20515;-71
2022/04/23 03:35:01;;;;;;;1.57;1.30;;;9.20;98.00;;;;;;5130483;28;20922;-71
2022/04/23 03:37:29;;;;;;;1.53;1.50;;;9.40;98.00;;;;;;5131486;28;20489;-70
2022/04/23 03:39:58;;;;;;;1.87;1.77;;;9.60;98.00;;;;;;5131521;28;21050;-71
2022/04/23 03:42:25;;;;;;;1.30;1.30;;;9.60;98.00;;;;;;5131480;28;20986;-71
2022/04/23 03:44:52;;;;;;;3.40;1.50;;;9.70;98.00;;;;;;5131268;28;20457;-71
2022/04/23 03:47:19;;;;;;;2.47;1.67;;;9.80;98.00;;;;;;5131261;28;20495;-70
2022/04/23 03:49:46;;;;;;;1.60;1.43;;;9.80;98.00;;;;;;5131868;27;20454;-71
2022/04/23 03:52:23;;;;;;;1.70;1.60;;;9.80;98.00;;;;;;5136017;27;20451;-70
2022/04/23 03:54:51;;;;;;;2.80;1.77;;;9.90;98.00;;;;;;5135506;27;20524;-70
2022/04/23 03:57:20;;;;;;;2.57;1.50;;;9.90;98.00;;;;;;5133909;27;20474;-70
2022/04/23 03:59:47;;;;;;;1.40;1.20;;;10.00;98.00;;;;;;5134969;27;20474;-70
2022/04/23 04:02:14;;;;;;;1.60;1.20;;;10.00;98.00;;;;;;5135040;27;20490;-71
2022/04/23 04:04:42;;;;;;;2.77;1.93;;;10.00;98.00;;;;;;5134815;27;20511;-70
2022/04/23 04:07:09;;;;;;;2.47;1.40;;;10.00;98.00;;;;;;5134847;27;20457;-70
2022/04/23 04:09:37;;;;;;;1.53;1.50;;;9.90;98.00;;;;;;5134792;27;20451;-70
2022/04/23 04:12:06;;;;;;;2.17;1.57;;;9.90;98.00;;;;;;5134645;27;20450;-70
2022/04/23 04:14:36;;;;;;;1.60;1.50;;;9.90;98.00;;;;;;5134880;27;20558;-71
2022/04/23 04:17:09;;;;;;;1.30;1.20;;;9.80;98.00;;;;;;5134832;27;20456;-70
2022/04/23 04:19:37;;;;;;;3.03;1.87;;;9.70;98.00;;;;;;5134688;27;20511;-71
2022/04/23 04:22:06;;;;;;;1.93;1.37;;;9.70;98.00;;;;;;5134597;27;20481;-70
2022/04/23 04:24:34;;;;;;;2.13;1.53;;;9.80;98.00;;;;;;5134882;27;20840;-70
2022/04/23 04:27:01;;;;;;;2.03;1.93;;;9.90;98.00;;;;;;5134599;27;20462;-70
2022/04/23 04:29:28;;;;;;;2.07;1.70;;;9.90;98.00;;;;;;5134600;27;20911;-71
2022/04/23 04:31:57;;;;;;;2.27;2.10;;;10.00;98.00;;;;;;5134339;27;20492;-71
2022/04/23 04:34:28;;;;;;;2.20;2.00;;;10.00;98.00;;;;;;5134369;27;20518;-70
2022/04/23 04:37:03;;;;;;;1.53;1.43;;;10.00;98.00;;;;;;5134204;27;20472;-70
2022/04/23 04:39:30;;;;;;;2.33;1.73;;;10.00;98.00;;;;;;5134226;27;20488;-71
2022/04/23 04:41:58;;;;;;;1.67;1.57;;;10.10;98.00;;;;;;5132960;27;20963;-70
2022/04/23 04:44:26;;;;;;;1.70;1.40;;;10.00;98.00;;;;;;5134240;27;20868;-71
2022/04/23 04:46:53;;;;;;;1.83;1.40;;;10.00;98.00;;;;;;5133993;27;20458;-70
2022/04/23 04:49:23;;;;;;;2.57;1.67;;;10.20;98.00;;;;;;5134143;27;21006;-71
2022/04/23 04:51:50;;;;;;;2.07;1.33;;;10.30;98.00;;;;;;5134010;27;20497;-70
2022/04/23 04:54:17;;;;;;;1.67;1.23;;;10.40;98.00;;;;;;5134082;27;20517;-70
2022/04/23 04:56:45;;;;;;;2.83;1.67;;;10.40;98.00;;;;;;5133796;27;20442;-71
2022/04/23 04:59:12;;;;;;;1.90;1.60;;;10.50;98.00;;;;;;5133862;27;20539;-70
2022/04/23 05:01:39;;;;;;;2.13;1.70;;;10.50;98.00;;;;;;5133651;27;20934;-70
2022/04/23 05:04:06;;;;;;;1.40;1.40;;;10.50;98.00;;;;;;5133911;27;20481;-70
2022/04/23 05:06:34;;;;;;;2.20;1.73;;;10.50;98.00;;;;;;5133693;27;20545;-69
2022/04/23 05:09:01;;;;;;;1.70;1.13;;;10.60;98.00;;;;;;5133938;27;20482;-70
2022/04/23 05:11:28;;;;;;;2.23;2.10;;;10.70;98.00;;;;;;5133736;27;20454;-70
2022/04/23 05:13:56;;;;;;;1.50;1.30;;;10.60;98.00;;;;;;5133654;27;20943;-70
2022/04/23 05:16:23;;;;;;;1.57;1.50;;;10.70;98.00;;;;;;5133785;27;20489;-70
2022/04/23 05:18:50;;;;;;;1.20;1.10;;;10.80;98.00;;;;;;5133761;27;20453;-70
2022/04/23 05:21:17;;;;;;;2.30;1.50;;;10.70;98.00;;;;;;5133450;27;20482;-70
2022/04/23 05:23:45;;;;;;;1.40;1.20;;;10.70;98.00;;;;;;5132426;27;20527;-69
2022/04/23 05:26:12;;;;;;;1.30;1.10;;;10.70;98.00;;;;;;5133312;27;20774;-70
2022/04/23 05:28:41;;;;;;;1.97;1.40;;;10.80;98.00;;;;;;5133353;27;20889;-70
2022/04/23 05:31:09;;;;;;;2.80;1.70;;;10.90;98.00;;;;;;5133233;27;20450;-70
2022/04/23 05:33:36;;;;;;;3.03;1.50;;;11.00;98.00;;;;;;5133229;27;20446;-70
2022/04/23 05:36:06;;;;;;;2.00;1.60;;;10.90;98.00;;;;;;5133126;27;21015;-69
2022/04/23 05:38:35;;;;;;;1.60;1.43;;;10.90;98.00;;;;;;5132572;27;20535;-70
2022/04/23 05:41:05;;;;;;;2.40;1.87;;;11.00;98.00;;;;;;5133088;27;20453;-69
2022/04/23 05:43:33;;;;;;;1.67;1.57;;;11.10;98.00;;;;;;5131832;27;20891;-69
2022/04/23 05:46:00;;;;;;;1.77;1.50;;;11.10;98.00;;;;;;5132511;27;20542;-69
2022/04/23 05:48:28;;;;;;;1.97;1.40;;;11.00;98.00;;;;;;5133154;27;20458;-69
2022/04/23 05:50:55;;;;;;;1.67;1.67;;;11.00;98.00;;;;;;5132747;27;20489;-70
2022/04/23 05:53:22;;;;;;;1.40;1.40;;;11.00;98.00;;;;;;5132961;27;20494;-69
2022/04/23 05:55:49;;;;;;;1.40;1.27;;;11.10;98.00;;;;;;5132719;27;20920;-69
2022/04/23 05:58:17;;;;;;;1.50;1.20;;;11.10;98.00;;;;;;5132815;27;20446;-70
2022/04/23 06:00:44;;;;;;;3.10;1.60;;;11.20;98.00;;;;;;5132804;27;20490;-70
2022/04/23 06:03:12;;;;;;;1.40;1.23;;;11.20;98.00;;;;;;5132644;27;20501;-70
2022/04/23 06:05:39;;;;;;;1.40;1.30;;;11.30;98.00;;;;;;5131484;27;20455;-70
2022/04/23 06:08:08;;;;;;;1.20;1.10;;;11.40;98.00;;;;;;5131673;27;20961;-70
2022/04/23 06:10:36;;;;;;;1.33;1.30;;;11.50;98.00;;;;;;5132749;27;20859;-70
2022/04/23 06:13:06;;;;;;;1.40;1.10;;;11.70;98.00;;;;;;5132249;27;20478;-70
2022/04/23 06:15:34;;;;;;;1.43;1.40;;;11.70;98.00;;;;;;5132472;27;20557;-70
2022/04/23 06:18:02;;;;;;;1.53;1.30;;;11.60;98.00;;;;;;5132531;27;20450;-69
2022/04/23 06:20:29;;;;;;;1.70;1.30;;;11.70;98.00;;;;;;5133539;27;20491;-70
2022/04/23 06:22:56;;;;;;;1.50;1.30;;;11.70;98.00;;;;;;5132842;27;20455;-70
2022/04/23 06:25:23;;;;;;;2.77;2.07;;;11.80;98.00;;;;;;5133437;27;20464;-70
2022/04/23 06:27:51;;;;;;;2.73;2.33;;;11.90;98.00;;;;;;5131411;27;20459;-69
2022/04/23 06:30:18;;;;;;;3.03;1.50;;;11.90;98.00;;;;;;5132216;27;20538;-70
2022/04/23 06:32:46;;;;;;;1.67;1.30;;;11.90;98.00;;;;;;5114187;27;20446;-69
2022/04/23 06:35:14;;;;;;;1.67;1.37;;;11.80;98.00;;;;;;5132022;27;20538;-69
2022/04/23 06:37:42;;;;;;;1.30;1.27;;;11.90;98.00;;;;;;5131501;27;20512;-69
2022/04/23 06:40:11;;;;;;;1.57;1.17;;;11.90;98.00;;;;;;5132158;27;20552;-69
2022/04/23 06:42:38;;;;;;;2.27;1.70;;;12.10;98.00;;;;;;5132170;27;20455;-69
2022/04/23 06:45:06;;;;;;;2.13;1.90;;;12.10;98.00;;;;;;5132080;27;20937;-69
2022/04/23 06:47:33;;;;;;;2.50;1.80;;;12.20;98.00;;;;;;5132052;27;20545;-69
2022/04/23 06:50:01;;;;;;;1.73;1.20;;;12.20;98.00;;;;;;5131958;28;20452;-69
2022/04/23 06:52:28;;;;;;;2.47;1.63;;;12.30;98.00;;;;;;5131949;27;20537;-69
2022/04/23 06:54:55;;;;;;;2.07;1.40;;;12.30;98.00;;;;;;5131898;28;20517;-69
2022/04/23 06:57:26;;;;;;;2.60;1.90;;;12.30;98.00;;;;;;5131947;28;20545;-69
2022/04/23 06:59:53;;;;;;;1.90;1.60;;;12.20;98.00;;;;;;5132109;28;20517;-69
2022/04/23 07:02:21;;;;;;;1.40;1.20;;;12.20;98.00;;;;;;5131886;28;20457;-69
2022/04/23 07:04:48;;;;;;;1.80;1.50;;;12.30;98.00;;;;;;5132024;28;20460;-69
2022/04/23 07:07:16;;;;;;;2.40;1.63;;;12.40;98.00;;;;;;5131613;28;20487;-69
2022/04/23 07:09:43;;;;;;;1.30;1.30;;;12.40;98.00;;;;;;5130664;28;20488;-67
2022/04/23 07:12:12;;;;;;;1.50;1.37;;;12.50;98.00;;;;;;5130614;28;20457;-67
2022/04/23 07:14:40;;;;;;;1.80;1.43;;;12.50;98.00;;;;;;5130381;28;20561;-67
2022/04/23 07:17:07;;;;;;;1.50;1.50;;;12.60;98.00;;;;;;5131684;28;20974;-67
2022/04/23 07:19:39;;;;;;;1.63;1.57;;;12.60;98.00;;;;;;5131875;28;20500;-67
2022/04/23 07:22:07;;;;;;;1.60;1.37;;;12.70;98.00;;;;;;5131865;28;20489;-68
2022/04/23 07:24:35;;;;;;;1.20;1.20;;;12.80;98.00;;;;;;5133676;27;20481;-67
2022/04/23 07:27:02;;;;;;;4.70;1.50;;;12.80;98.00;;;;;;5135603;27;20480;-67
2022/04/23 07:29:29;;;;;;;1.30;1.20;;;12.80;98.00;;;;;;5135626;27;20874;-67
2022/04/23 07:31:58;;;;;;;1.63;1.30;;;12.80;98.00;;;;;;5135486;27;20487;-67
2022/04/23 07:39:58;;;;;;;1.90;1.80;;;13.00;98.00;;;;;;5135592;27;20434;-69
2022/04/23 07:42:26;;;;;;;2.23;1.23;;;13.00;98.00;;;;;;5135354;27;20449;-69
2022/04/23 07:44:54;;;;;;;2.97;1.70;;;13.00;98.00;;;;;;5119633;27;20857;-68
2022/04/23 07:47:21;;;;;;;1.37;1.13;;;13.00;98.00;;;;;;5119911;27;20500;-69
2022/04/23 07:49:48;;;;;;;1.30;1.20;;;13.10;98.00;;;;;;5114940;28;20578;-69
2022/04/23 07:52:15;;;;;;;2.10;1.70;;;13.10;98.00;;;;;;5113583;28;20468;-69
2022/04/23 07:54:43;;;;;;;2.53;1.80;;;13.10;98.00;;;;;;5114753;28;20462;-69
2022/04/23 07:57:13;;;;;;;1.50;1.30;;;13.20;98.00;;;;;;5112932;28;20459;-69
2022/04/23 07:59:42;;;;;;;1.30;1.17;;;13.10;98.00;;;;;;5114635;28;20511;-69
2022/04/23 08:02:09;;;;;;;2.30;1.73;;;13.10;98.00;;;;;;5113350;28;20462;-69
2022/04/23 08:04:36;;;;;;;1.50;1.40;;;13.20;98.00;;;;;;5114538;28;20722;-70
2022/04/23 08:07:03;;;;;;;1.70;1.40;;;13.20;98.00;;;;;;5114343;28;20501;-69
2022/04/23 08:09:31;;;;;;;3.17;2.03;;;13.30;98.00;;;;;;5114239;28;20497;-70
2022/04/23 08:11:58;;;;;;;2.00;1.67;;;13.30;98.00;;;;;;5114283;28;20496;-69
2022/04/23 08:14:27;;;;;;;2.13;1.40;;;13.60;98.00;;;;;;5101423;28;20447;-70
2022/04/23 08:16:53;;;;;;;1.50;1.37;;;13.90;98.00;;;;;;5103117;28;20517;-69
2022/04/23 08:19:37;;;;;;;2.13;1.97;;;14.10;98.00;;;;;;5103425;28;20458;-70
2022/04/23 08:22:04;;;;;;;1.90;1.87;;;14.20;98.00;;;;;;5104418;28;20457;-69
2022/04/23 08:24:31;;;;;;;1.37;1.27;;;14.20;98.00;;;;;;5114028;28;20540;-69
2022/04/23 08:26:58;;;;;;;3.03;1.70;;;14.20;98.00;;;;;;5113990;28;20533;-69
2022/04/23 08:32:16;;;;;;;1.40;1.30;;;13.90;98.00;;;;;;5074102;28;20463;-69
2022/04/23 08:34:43;;;;;;;3.10;1.63;;;13.70;98.00;;;;;;5114005;28;20489;-69
2022/04/23 08:37:10;;;;;;;1.97;1.47;;;13.60;98.00;;;;;;5113179;28;20455;-69
2022/04/23 08:39:37;;;;;;;1.63;1.40;;;13.50;98.00;;;;;;5112675;28;20551;-69
2022/04/23 08:42:08;;;;;;;1.80;1.33;;;13.60;98.00;;;;;;5113867;28;21017;-69
2022/04/23 08:44:37;;;;;;;1.50;1.40;;;13.60;98.00;;;;;;5114210;28;20866;-69
2022/04/23 08:47:05;;;;;;;3.30;1.60;;;13.60;98.00;;;;;;5113697;28;20565;-69
2022/04/23 08:49:33;;;;;;;2.40;1.50;;;13.60;98.00;;;;;;5113664;28;20480;-69
2022/04/23 08:52:11;;;;;;;3.10;1.60;;;13.60;98.00;;;;;;5113311;28;20452;-69
2022/04/23 08:54:40;;;;;;;2.00;1.57;;;13.60;98.00;;;;;;5113756;28;20455;-69
2022/04/23 08:57:07;;;;;;;1.50;1.20;;;13.50;98.00;;;;;;5113452;28;20590;-69
2022/04/23 08:59:34;;;;;;;2.20;1.53;;;13.60;98.00;;;;;;5113420;28;20554;-69
2022/04/23 09:02:02;;;;;;;1.50;1.40;;;13.60;98.00;;;;;;5113455;28;20477;-69
2022/04/23 09:04:30;;;;;;;1.83;1.40;;;13.60;98.00;;;;;;5113354;28;20466;-69
2022/04/23 09:06:56;;;;;;;1.63;1.23;;;13.60;98.00;;;;;;5113043;28;20457;-69
2022/04/23 09:09:25;;;;;;;2.10;1.73;;;13.60;98.00;;;;;;5113416;28;20500;-69
2022/04/23 09:11:54;;;;;;;2.07;1.77;;;13.70;98.00;;;;;;5113091;28;20457;-69
2022/04/23 09:14:27;;;;;;;2.13;1.37;;;13.70;98.00;;;;;;5113168;28;20552;-69
2022/04/23 09:25:32;;;;;;;1.30;1.30;;;14.00;98.00;;;;;;5113058;28;20438;-68
2022/04/23 09:28:15;;;;;;;1.60;1.43;;;13.90;98.00;;;;;;5113028;28;20513;-68
2022/04/23 09:30:42;;;;;;;1.87;1.30;;;13.80;98.00;;;;;;5113011;28;20906;-69
2022/04/23 09:33:09;;;;;;;1.60;1.33;;;13.80;98.00;;;;;;5112963;28;20521;-68
2022/04/23 09:35:53;;;;;;;1.60;1.47;;;13.90;98.00;;;;;;5112957;28;20487;-68
2022/04/23 09:38:20;;;;;;;2.20;2.00;;;13.90;98.00;;;;;;5112936;28;20967;-68
2022/04/23 09:40:51;;;;;;;1.73;1.40;;;13.80;98.00;;;;;;5112445;28;20790;-69
2022/04/23 09:43:25;;;;;;;1.70;1.30;;;13.90;98.00;;;;;;5112226;28;20453;-69
2022/04/23 09:46:01;;;;;;;2.13;1.27;;;13.90;98.00;;;;;;5112380;28;20872;-69
2022/04/23 09:48:28;;;;;;;1.70;1.20;;;14.00;98.00;;;;;;5111563;28;20493;-68
2022/04/23 09:50:56;;;;;;;1.87;1.30;;;13.90;98.00;;;;;;5112154;28;20552;-69
2022/04/23 09:53:27;;;;;;;1.87;1.47;;;14.00;98.00;;;;;;5103040;28;20488;-68
2022/04/23 09:55:59;;;;;;;1.90;1.80;;;14.10;98.00;;;;;;5101662;28;20486;-69
2022/04/23 09:58:27;;;;;;;1.70;1.50;;;14.10;98.00;;;;;;5112219;28;20539;-68
2022/04/23 10:00:55;;;;;;;1.43;1.40;;;14.20;98.00;;;;;;5111945;28;20466;-68
2022/04/23 10:03:28;;;;;;;1.50;1.30;;;14.20;98.00;;;;;;5110889;28;20464;-67
2022/04/23 10:05:58;;;;;;;2.90;2.07;;;14.30;98.00;;;;;;5112109;28;20444;-67
2022/04/23 10:08:27;;;;;;;1.20;1.10;;;14.40;98.00;;;;;;5112293;28;20536;-67
2022/04/23 10:10:55;;;;;;;1.37;1.27;;;14.50;98.00;;;;;;5110774;28;20460;-67
2022/04/23 10:13:25;;;;;;;1.97;1.60;;;14.60;98.00;;;;;;5111919;28;20487;-67
2022/04/23 10:15:55;;;;;;;2.83;1.70;;;14.70;98.00;;;;;;5111689;28;20478;-68
2022/04/23 10:18:23;;;;;;;1.77;1.67;;;14.70;98.00;;;;;;5111755;28;20824;-68
2022/04/23 10:20:55;;;;;;;2.00;1.33;;;14.70;98.00;;;;;;5110158;28;20514;-67
2022/04/23 10:23:40;;;;;;;1.57;1.33;;;14.80;98.00;;;;;;5112022;28;20454;-69
2022/04/23 10:26:26;;;;;;;1.60;1.60;;;14.80;98.00;;;;;;5112024;28;20500;-66
2022/04/23 10:28:53;;;;;;;1.67;1.50;;;14.90;98.00;;;;;;5111931;28;20477;-66
2022/04/23 10:31:21;;;;;;;2.47;2.00;;;14.90;97.90;;;;;;5110426;28;21009;-66
2022/04/23 10:33:51;;;;;;;1.63;1.60;;;14.90;97.30;;;;;;5109913;27;20543;-67
2022/04/23 10:36:20;;;;;;;2.03;1.50;;;15.00;97.70;;;;;;5126300;27;20482;-68
2022/04/23 10:38:52;;;;;;;3.70;1.90;;;15.00;98.00;;;;;;5102152;27;20497;-68
2022/04/23 10:41:21;;;;;;;2.63;1.50;;;15.00;97.70;;;;;;5111414;27;20463;-68
2022/04/23 10:43:50;;;;;;;1.60;1.50;;;15.00;98.00;;;;;;5128029;27;20859;-69
2022/04/23 10:46:48;;;;;;;4.87;2.20;;;15.10;98.00;;;;;;5119297;27;20535;-68
2022/04/23 10:49:18;;;;;;;1.30;1.30;;;15.10;97.90;;;;;;5111974;27;20470;-69
2022/04/23 10:51:49;;;;;;;3.67;1.77;;;15.10;97.20;;;;;;5110888;27;20451;-68
2022/04/23 10:54:21;;;;;;;2.43;1.73;;;15.00;97.60;;;;;;5123376;27;20528;-68
2022/04/23 10:57:06;;;;;;;2.17;1.80;;;15.00;98.00;;;;;;5124871;28;20582;-68
2022/04/23 10:59:36;;;;;;;1.90;1.53;;;15.10;98.00;;;;;;5118776;27;20541;-68
2022/04/23 11:02:06;;;;;;;1.80;1.77;;;15.10;97.70;;;;;;5118797;28;20846;-68
2022/04/23 11:04:33;;;;;;;2.30;1.70;;;15.10;97.60;;;;;;5119929;27;20852;-68
2022/04/23 11:12:52;;;;;;;2.03;1.87;;;15.20;96.90;;;;;;5110770;28;20525;-68
2022/04/23 11:15:20;;;;;;;2.70;2.33;;;15.30;97.10;;;;;;5119303;28;20452;-68
2022/04/23 11:17:55;;;;;;;2.60;1.73;;;15.40;97.20;;;;;;5109958;28;21009;-68
2022/04/23 11:20:33;;;;;;;1.83;1.63;;;15.30;96.50;;;;;;5111363;28;20458;-68
2022/04/23 11:23:02;;;;;;;1.80;1.60;;;15.40;98.00;;;;;;5117994;28;20522;-68
2022/04/23 11:25:31;;;;;;;2.93;1.80;;;15.40;98.00;;;;;;5111341;28;20457;-68
2022/04/23 11:28:13;;;;;;;2.33;1.67;;;15.50;97.10;;;;;;5126139;28;20458;-68
2022/04/23 11:30:40;;;;;;;1.53;1.40;;;15.50;96.30;;;;;;5118455;28;20517;-69
2022/04/23 11:33:12;;;;;;;1.80;1.73;;;15.50;96.20;;;;;;5111134;28;20581;-69
2022/04/23 11:35:39;;;;;;;1.53;1.40;;;15.50;95.80;;;;;;5127633;28;20462;-69
2022/04/23 11:38:17;;;;;;;2.23;1.93;;;15.40;96.40;;;;;;5120109;27;20944;-69
2022/04/23 11:40:45;;;;;;;3.33;1.90;;;15.40;96.20;;;;;;5119288;28;20866;-68
2022/04/23 11:43:13;;;;;;;1.43;1.40;;;15.50;97.80;;;;;;5118359;28;20480;-68
2022/04/23 11:45:47;;;;;;;2.83;1.80;;;15.60;96.70;;;;;;5126826;28;20452;-68
2022/04/23 11:48:15;;;;;;;2.60;1.87;;;15.60;95.70;;;;;;5110805;28;20829;-68
2022/04/23 11:50:42;;;;;;;4.33;2.60;;;15.60;96.50;;;;;;5118222;28;20451;-68
2022/04/23 11:53:10;;;;;;;2.50;1.53;;;15.60;96.30;;;;;;5116978;28;20882;-68
2022/04/23 11:55:37;;;;;;;3.60;1.70;;;15.70;96.90;;;;;;5119203;28;20458;-69
2022/04/23 11:58:06;;;;;;;3.87;1.73;;;15.80;96.10;;;;;;5110954;28;21015;-68
2022/04/23 12:00:34;;;;;;;2.47;1.80;;;15.80;96.10;;;;;;5109985;28;20456;-68
2022/04/23 12:03:03;;;;;;;1.90;1.53;;;15.80;96.00;;;;;;5110851;28;20535;-68
2022/04/23 12:05:32;;;;;;;1.93;1.90;;;15.80;96.20;;;;;;5110871;28;20489;-69
2022/04/23 12:08:00;;;;;;;1.87;1.50;;;15.80;96.40;;;;;;5109827;28;20496;-69
2022/04/23 12:10:28;;;;;;;2.90;2.73;;;16.00;96.10;;;;;;5112281;28;20462;-68
2022/04/23 12:12:56;;;;;;;3.00;2.30;;;16.10;95.40;;;;;;5115197;28;20961;-68
2022/04/23 12:15:25;;;;;;;2.20;1.60;;;16.30;96.70;;;;;;5115307;28;20517;-68
2022/04/23 12:17:53;;;;;;;1.87;1.70;;;16.50;95.10;;;;;;5114379;28;20554;-68
2022/04/23 12:20:21;;;;;;;2.90;1.83;;;16.60;95.20;;;;;;5114197;28;20460;-68
2022/04/23 12:23:02;;;;;;;2.27;1.63;;;16.60;95.00;;;;;;5114251;28;20488;-68
2022/04/23 12:25:29;;;;;;;3.00;1.90;;;16.50;95.20;;;;;;5114560;28;20491;-68
2022/04/23 12:27:58;;;;;;;3.90;2.47;;;16.50;94.70;;;;;;5114714;28;20492;-68
2022/04/23 12:41:56;;;;;;;2.40;2.20;;;16.40;94.70;;;;;;5088395;28;20455;-68
2022/04/23 12:44:25;;;;;;;1.90;1.77;;;16.50;94.80;;;;;;5113746;28;20454;-68
2022/04/23 12:46:55;;;;;;;2.20;1.90;;;16.50;94.80;;;;;;5112670;28;21067;-68
2022/04/23 12:49:22;;;;;;;1.97;1.37;;;16.40;95.20;;;;;;5113522;28;20482;-68
2022/04/23 12:51:54;;;;;;;4.43;2.37;;;16.40;95.70;;;;;;5113534;28;20489;-68
2022/04/23 12:54:22;;;;;;;3.07;1.97;;;16.50;95.90;;;;;;5113551;28;20493;-68
2022/04/23 12:56:50;;;;;;;2.40;2.20;;;16.60;94.50;;;;;;5113482;28;21103;-68
2022/04/23 12:59:17;;;;;;;2.77;1.90;;;16.70;94.20;;;;;;5113663;28;21045;-68
2022/04/23 13:01:44;;;;;;;2.77;2.10;;;16.90;94.40;;;;;;5113529;28;20493;-68
2022/04/23 13:04:14;;;;;;;2.40;2.00;;;16.90;92.80;;;;;;5113800;27;20496;-68
2022/04/23 13:09:26;;;;;;;2.00;1.87;;;17.10;92.90;;;;;;5113599;28;20492;-68
2022/04/23 13:11:56;;;;;;;2.90;2.13;;;17.30;93.10;;;;;;5113079;28;20862;-68
2022/04/23 13:14:23;;;;;;;2.30;2.00;;;17.30;92.10;;;;;;5112300;28;20446;-68
2022/04/23 13:16:50;;;;;;;2.13;1.70;;;17.30;92.30;;;;;;5113185;28;21184;-68
2022/04/23 13:19:19;;;;;;;2.37;1.47;;;17.30;92.90;;;;;;5112009;28;20507;-68
2022/04/23 13:21:46;;;;;;;3.50;2.07;;;17.20;92.60;;;;;;5113047;28;20454;-68
2022/04/23 13:24:13;;;;;;;2.23;1.83;;;17.20;92.80;;;;;;5113065;28;20494;-68
2022/04/23 13:26:40;;;;;;;4.00;2.63;;;17.10;94.50;;;;;;5113002;28;21017;-68
2022/04/23 13:29:07;;;;;;;4.90;2.80;;;17.00;94.60;;;;;;5111962;28;20464;-68
2022/04/23 13:31:37;;;;;;;2.33;2.00;;;16.90;93.60;;;;;;5111618;28;20458;-68